This is the latest recevied weather packets stored in our database for station/object N0THY. If no packets are shown the sender has not sent any weather packets the latest 10 day(s).
| Time | Temp. | Humidity | Pressure | Rain* | Wind** | Luminosity | Snow |
|---|---|---|---|---|---|---|---|
| 1777046892 | 12.22° C | 35% | 1012.7 hPa | 0 mm | - | - | - |
| 1777045990 | 11.11° C | 38% | 1013 hPa | 0 mm | - | - | - |
| 1777045087 | 10.56° C | 40% | 1013.2 hPa | 0 mm | - | - | - |
| 1777044184 | 9.44° C | 42% | 1013.5 hPa | 0 mm | - | - | - |
| 1777043281 | 8.89° C | 45% | 1013.6 hPa | 0 mm | - | - | - |
| 1777042378 | 8.33° C | 47% | 1014 hPa | 0 mm | - | - | - |
| 1777041475 | 6.67° C | 50% | 1014.2 hPa | 0 mm | - | - | - |
| 1777040572 | 6.11° C | 52% | 1014.4 hPa | 0 mm | - | - | - |
| 1777039669 | 5° C | 56% | 1014.6 hPa | 0 mm | - | - | - |
| 1777038766 | 3.33° C | 62% | 1014.8 hPa | 0 mm | - | - | - |
| 1777037863 | 1.67° C | 67% | 1014.7 hPa | 0 mm | - | - | - |
| 1777036960 | -0.56° C | 73% | 1014.8 hPa | 0 mm | - | - | - |
| 1777036057 | -2.78° C | 76% | 1014.8 hPa | 0 mm | - | - | - |
| 1777035154 | -3.33° C | 77% | 1014.8 hPa | 0 mm | - | - | - |
| 1777034251 | -3.33° C | 76% | 1014.8 hPa | 0 mm | - | - | - |
| 1777033348 | -3.33° C | 75% | 1014.8 hPa | 0 mm | - | - | - |
| 1777032445 | -2.78° C | 75% | 1014.8 hPa | 0 mm | - | - | - |
| 1777031542 | -2.78° C | 75% | 1014.8 hPa | 0 mm | - | - | - |
| 1777030640 | -2.78° C | 75% | 1014.8 hPa | 0 mm | - | - | - |
| 1777029737 | -2.78° C | 75% | 1014.7 hPa | 0 mm | - | - | - |
| 1777028834 | -2.22° C | 74% | 1014.8 hPa | 0 mm | - | - | - |
| 1777027931 | -2.22° C | 73% | 1014.7 hPa | 0 mm | - | - | - |
* Rain since midnight (hover to see other rain measurements)
** Current wind speed in m/s (hover to see current wind gust speed)